Apex, New York
Current Conditions -  °F | °C
As of 1:55 PM on Friday 24 Oct 2014 (Local Time) from KMSV Reporting Station
Overcast Overcast  
Wind Chill: 57°   Ceiling: 3900
Heat Index: 57°   Visibility: 10mi
Dew Point: 43°   Wind: 16mph
Humidity: 59%   Direction: 330°NNW
Pressure: 29.81"   Gusts: 26mph
Location:  41.9099°N, 75.1815°W
Report Text: KMSV 241755Z AUTO 33014G23KT 10SM BKN039 OVC046 14/06 A2981 RMK AO1 10140 20070 57017
Loading
Personal Weather Stations






























Interactive Weather Map
Tropical Storm Tracking
New forecast layout! Learn more

10-Day Weather Forecast

Advertisements
Track Severe Weather on mobile